Time;durP1;ratioP1;P1;durP2;ratioP2;P2;SDS_P1;SDS_P2;PMS_P1;PMS_P2;Temp;Humidity;BMP_temperature;BMP_pressure;BME280_temperature;BME280_humidity;BME280_pressure;Samples;Min_cycle;Max_cycle;Signal;HPM_P1;HPM_P2
2023/09/18 00:01:15;;;;;;;6.80;4.00;;;;;;;16.31;100.00;99834.23;109594;1286;100373;-61
2023/09/18 00:03:44;;;;;;;8.10;4.70;;;;;;;16.27;100.00;99833.26;109627;1283;22314;-61
2023/09/18 00:06:12;;;;;;;6.90;4.60;;;;;;;16.23;100.00;99828.10;109513;1283;100253;-61
2023/09/18 00:08:41;;;;;;;5.90;3.90;;;;;;;16.18;100.00;99831.63;109385;1283;22311;-61
2023/09/18 00:11:09;;;;;;;11.00;4.50;;;;;;;16.14;100.00;99831.88;109607;1286;22294;-61
2023/09/18 00:13:38;;;;;;;5.10;3.70;;;;;;;16.12;100.00;99835.17;109539;1285;101151;-62
2023/09/18 00:16:06;;;;;;;5.50;3.90;;;;;;;16.09;100.00;99837.33;109620;1286;22280;-61
2023/09/18 00:18:35;;;;;;;5.70;4.40;;;;;;;16.08;100.00;99832.70;109335;1270;100618;-61
2023/09/18 00:21:04;;;;;;;7.60;3.90;;;;;;;16.06;100.00;99832.13;109612;1286;22152;-61
2023/09/18 00:23:35;;;;;;;5.40;3.80;;;;;;;16.04;100.00;99829.80;109381;1286;22371;-61
2023/09/18 00:26:04;;;;;;;10.00;3.90;;;;;;;16.03;100.00;99832.50;109483;1286;99664;-61
2023/09/18 00:28:33;;;;;;;7.60;4.60;;;;;;;16.02;100.00;99832.71;109616;1284;22246;-61
2023/09/18 00:31:02;;;;;;;7.70;3.90;;;;;;;16.00;100.00;99830.92;109528;1285;100301;-61
2023/09/18 00:33:30;;;;;;;7.60;4.40;;;;;;;15.99;100.00;99830.67;109607;1286;22987;-62
2023/09/18 00:35:59;;;;;;;7.10;4.50;;;;;;;15.98;100.00;99833.15;109312;1283;100420;-62
2023/09/18 00:38:27;;;;;;;6.80;4.00;;;;;;;15.97;100.00;99834.10;109605;1285;22809;-61
2023/09/18 00:40:56;;;;;;;6.80;3.90;;;;;;;15.96;100.00;99834.35;109644;1286;22264;-61
2023/09/18 00:43:24;;;;;;;5.50;4.40;;;;;;;15.96;100.00;99828.71;109573;1283;99691;-61
2023/09/18 00:45:53;;;;;;;5.80;3.50;;;;;;;15.97;100.00;99824.60;109386;1286;22175;-61
2023/09/18 00:48:58;;;;;;;6.70;3.80;;;;;;;16.00;100.00;99824.42;108913;1269;100506;-61
2023/09/18 00:51:27;;;;;;;7.40;3.90;;;;;;;16.01;100.00;99825.44;109156;1286;100536;-61
2023/09/18 00:53:56;;;;;;;5.70;4.10;;;;;;;16.01;100.00;99824.21;109286;1285;22325;-61
2023/09/18 00:56:24;;;;;;;5.30;4.20;;;;;;;16.02;100.00;99818.30;109255;1286;100416;-61
2023/09/18 00:58:54;;;;;;;7.00;4.30;;;;;;;16.05;100.00;99814.48;109323;1285;22314;-61
2023/09/18 01:01:23;;;;;;;7.10;4.60;;;;;;;16.05;100.00;99810.75;109221;1285;99870;-61
2023/09/18 01:03:53;;;;;;;6.70;3.80;;;;;;;16.05;100.00;99807.08;109356;1282;23136;-61
2023/09/18 01:06:27;;;;;;;5.60;4.50;;;;;;;16.04;100.00;99805.94;109377;1284;22354;-61
2023/09/18 01:08:56;;;;;;;5.30;4.10;;;;;;;16.03;100.00;99810.04;109239;1286;99848;-61
2023/09/18 01:11:38;;;;;;;6.30;4.60;;;;;;;16.03;100.00;99810.33;109116;1286;22981;-61
2023/09/18 01:14:13;;;;;;;7.60;5.40;;;;;;;16.02;100.00;99804.79;109202;1285;101782;-61
2023/09/18 01:16:50;;;;;;;9.10;5.60;;;;;;;15.99;100.00;99799.73;109323;1285;22317;-61
2023/09/18 01:19:46;;;;;;;9.30;6.10;;;;;;;15.97;100.00;99801.15;109252;1286;99783;-61
2023/09/18 01:22:17;;;;;;;6.20;4.50;;;;;;;15.92;100.00;99797.95;109432;1285;23300;-62
2023/09/18 01:24:47;;;;;;;7.90;5.50;;;;;;;15.93;100.00;99788.45;109249;1286;22185;-61
2023/09/18 01:27:18;;;;;;;7.80;5.10;;;;;;;15.90;100.00;99786.67;109277;1285;100280;-61
2023/09/18 01:29:47;;;;;;;7.30;4.90;;;;;;;15.90;100.00;99783.14;109105;1286;22298;-61
2023/09/18 01:32:16;;;;;;;10.50;6.00;;;;;;;15.89;100.00;99782.30;109251;1282;99798;-61
2023/09/18 01:34:51;;;;;;;7.00;5.10;;;;;;;15.87;100.00;99777.52;109085;1286;22171;-61
2023/09/18 01:37:23;;;;;;;8.80;5.50;;;;;;;15.84;100.00;99775.78;109281;1285;100676;-61
2023/09/18 01:39:53;;;;;;;9.60;5.60;;;;;;;15.84;100.00;99775.46;109044;1286;22126;-61
2023/09/18 01:42:22;;;;;;;6.30;5.10;;;;;;;15.83;100.00;99774.64;109297;1285;22972;-62
2023/09/18 01:44:53;;;;;;;7.00;4.40;;;;;;;15.81;100.00;99769.19;109239;1285;100238;-61
2023/09/18 01:47:26;;;;;;;9.40;5.40;;;;;;;15.80;100.00;99766.98;109306;1280;22660;-61
2023/09/18 01:49:55;;;;;;;6.60;4.70;;;;;;;15.77;100.00;99763.48;108998;1288;101343;-61
2023/09/18 01:52:24;;;;;;;8.20;5.40;;;;;;;15.77;100.00;99762.42;109363;1286;22184;-62
2023/09/18 01:54:53;;;;;;;7.60;5.00;;;;;;;15.74;100.00;99760.56;109132;1286;22152;-61
2023/09/18 01:57:21;;;;;;;8.30;5.50;;;;;;;15.71;100.00;99757.91;109296;1286;99659;-62
2023/09/18 01:59:50;;;;;;;7.50;5.20;;;;;;;15.71;100.00;99759.33;109348;1285;22872;-61
2023/09/18 02:02:18;;;;;;;8.40;5.40;;;;;;;15.69;100.00;99757.02;109269;1285;101747;-60
2023/09/18 02:05:04;;;;;;;8.20;5.30;;;;;;;15.68;100.00;99762.02;109429;1285;22125;-61
2023/09/18 02:07:37;;;;;;;7.10;4.90;;;;;;;15.63;100.00;99761.45;109061;1286;100154;-61
2023/09/18 02:10:06;;;;;;;8.60;5.20;;;;;;;15.65;100.00;99763.06;109341;1280;22319;-60
2023/09/18 02:12:35;;;;;;;7.80;5.10;;;;;;;15.64;100.00;99758.93;109342;1282;22444;-61
2023/09/18 02:15:06;;;;;;;8.30;5.30;;;;;;;15.64;100.00;99761.35;109277;1285;100310;-61
2023/09/18 02:17:35;;;;;;;8.20;5.90;;;;;;;15.63;100.00;99754.05;109340;1285;22160;-60
2023/09/18 02:20:11;;;;;;;7.90;4.30;;;;;;;15.61;100.00;99751.05;109218;1285;102962;-61
2023/09/18 02:22:40;;;;;;;5.90;4.60;;;;;;;15.59;100.00;99752.72;109070;1286;22235;-61
2023/09/18 02:25:09;;;;;;;8.90;5.30;;;;;;;15.60;100.00;99751.30;109285;1285;99806;-60
2023/09/18 02:27:38;;;;;;;7.20;4.60;;;;;;;15.61;100.00;99749.44;109110;1287;22159;-61
2023/09/18 02:30:07;;;;;;;11.00;5.80;;;;;;;15.62;100.00;99752.23;109085;1287;23021;-61
2023/09/18 02:32:36;;;;;;;9.50;5.20;;;;;;;15.55;100.00;99750.55;109098;1286;100678;-61
2023/09/18 02:35:07;;;;;;;7.30;5.20;;;;;;;15.54;100.00;99751.36;109306;1285;23288;-61
2023/09/18 02:37:35;;;;;;;7.10;4.40;;;;;;;15.54;100.00;99745.56;108971;1286;100872;-61
2023/09/18 02:40:05;;;;;;;7.80;5.80;;;;;;;15.54;100.00;99746.07;109313;1285;22351;-61
2023/09/18 02:42:33;;;;;;;5.10;4.10;;;;;;;15.52;100.00;99744.98;109167;1286;22322;-62
2023/09/18 02:45:02;;;;;;;7.00;5.00;;;;;;;15.50;100.00;99743.04;109248;1283;100260;-61
2023/09/18 02:47:31;;;;;;;7.00;4.70;;;;;;;15.52;100.00;99740.09;109335;1285;22094;-61
2023/09/18 02:49:59;;;;;;;7.00;5.10;;;;;;;15.53;100.00;99737.23;109238;1286;99859;-61
2023/09/18 02:52:29;;;;;;;7.50;4.40;;;;;;;15.54;100.00;99733.42;109355;1285;22321;-61
2023/09/18 02:54:57;;;;;;;7.60;4.60;;;;;;;15.55;100.00;99734.08;109377;1286;22912;-61
2023/09/18 02:57:26;;;;;;;6.80;4.20;;;;;;;15.53;100.00;99725.80;109262;1285;99927;-61
2023/09/18 02:59:54;;;;;;;8.80;4.30;;;;;;;15.54;100.00;99723.08;109317;1286;22322;-61
2023/09/18 03:02:23;;;;;;;6.80;4.60;;;;;;;15.57;100.00;99720.64;109300;1285;100055;-61
2023/09/18 03:04:52;;;;;;;5.60;4.10;;;;;;;15.57;100.00;99718.36;109383;1285;22299;-61
2023/09/18 03:07:21;;;;;;;5.70;4.20;;;;;;;15.57;100.00;99719.91;109265;1285;100336;-61
2023/09/18 03:09:50;;;;;;;6.30;4.80;;;;;;;15.56;100.00;99720.17;109047;1288;22389;-61
2023/09/18 03:12:18;;;;;;;6.10;4.40;;;;;;;15.50;100.00;99717.08;109055;1287;22134;-61
2023/09/18 03:14:47;;;;;;;6.20;4.00;;;;;;;15.49;100.00;99712.55;109258;1285;100372;-61
2023/09/18 03:17:15;;;;;;;7.70;5.20;;;;;;;15.49;100.00;99712.58;109191;1286;22286;-61
2023/09/18 03:19:48;;;;;;;6.60;4.90;;;;;;;15.47;100.00;99712.50;109257;1286;100516;-61
2023/09/18 03:22:16;;;;;;;7.00;5.00;;;;;;;15.49;100.00;99710.10;109324;1282;22372;-61
2023/09/18 03:24:46;;;;;;;5.80;4.00;;;;;;;15.49;100.00;99705.89;109329;1286;23378;-62
2023/09/18 03:27:15;;;;;;;5.70;4.10;;;;;;;15.50;100.00;99702.70;109273;1285;100259;-61
2023/09/18 03:29:43;;;;;;;6.70;4.70;;;;;;;15.49;100.00;99700.98;109336;1285;22162;-62
2023/09/18 03:32:12;;;;;;;6.50;4.10;;;;;;;15.47;100.00;99699.90;109235;1286;98849;-62
2023/09/18 03:34:40;;;;;;;5.60;3.90;;;;;;;15.47;100.00;99697.27;109332;1285;22300;-61
2023/09/18 03:37:10;;;;;;;7.70;5.10;;;;;;;15.47;100.00;99694.64;109258;1285;99872;-62
2023/09/18 03:39:39;;;;;;;6.60;4.60;;;;;;;15.48;100.00;99694.08;109344;1282;22404;-61
2023/09/18 03:42:07;;;;;;;6.70;4.80;;;;;;;15.47;100.00;99687.45;109348;1286;22161;-61
2023/09/18 03:44:36;;;;;;;7.10;4.90;;;;;;;15.47;100.00;99686.41;109299;1285;99837;-61
2023/09/18 03:47:05;;;;;;;5.10;3.70;;;;;;;15.48;100.00;99681.55;109344;1285;22189;-61
2023/09/18 03:49:33;;;;;;;5.40;4.00;;;;;;;15.50;100.00;99675.70;108964;1286;100496;-61
2023/09/18 03:52:02;;;;;;;6.30;4.60;;;;;;;15.49;100.00;99673.96;109311;1286;22366;-61
2023/09/18 03:54:31;;;;;;;4.90;3.70;;;;;;;15.50;100.00;99677.56;109347;1286;22321;-61
2023/09/18 03:56:59;;;;;;;5.10;3.70;;;;;;;15.48;100.00;99672.98;109239;1270;100299;-61
2023/09/18 03:59:28;;;;;;;7.30;4.40;;;;;;;15.48;100.00;99667.90;109338;1285;22822;-62
2023/09/18 04:01:57;;;;;;;6.20;4.30;;;;;;;15.47;100.00;99664.11;108968;1282;99193;-61
2023/09/18 04:04:25;;;;;;;6.40;4.20;;;;;;;15.47;100.00;99658.33;109334;1285;22987;-61
2023/09/18 04:06:54;;;;;;;8.80;4.40;;;;;;;15.47;100.00;99651.65;109345;1286;22311;-62
2023/09/18 04:09:22;;;;;;;4.10;3.40;;;;;;;15.48;100.00;99648.77;109250;1285;99376;-62
2023/09/18 04:11:51;;;;;;;5.20;3.40;;;;;;;15.48;100.00;99649.27;109365;1285;22355;-62
2023/09/18 04:14:20;;;;;;;5.30;3.70;;;;;;;15.47;100.00;99647.61;108968;1286;99787;-61
2023/09/18 04:16:49;;;;;;;7.10;4.60;;;;;;;15.43;100.00;99645.02;109291;1285;22163;-61
2023/09/18 04:19:21;;;;;;;5.00;4.10;;;;;;;15.40;100.00;99643.01;109255;1285;99995;-62
2023/09/18 04:21:49;;;;;;;6.00;4.30;;;;;;;15.36;100.00;99641.71;109334;1286;22298;-62
2023/09/18 04:24:18;;;;;;;6.60;4.00;;;;;;;15.30;100.00;99638.23;109338;1286;22187;-62
2023/09/18 04:26:47;;;;;;;6.60;4.50;;;;;;;15.29;100.00;99633.73;109257;1285;101462;-61
2023/09/18 04:29:16;;;;;;;6.10;4.50;;;;;;;15.27;100.00;99627.23;109318;1286;22156;-62
2023/09/18 04:31:45;;;;;;;4.80;3.60;;;;;;;15.25;100.00;99624.17;108896;1286;100334;-61
2023/09/18 04:34:14;;;;;;;7.80;5.00;;;;;;;15.26;100.00;99625.18;109341;1285;22298;-62
2023/09/18 04:36:44;;;;;;;6.30;4.60;;;;;;;15.27;100.00;99621.07;109051;1289;22175;-62
2023/09/18 04:39:12;;;;;;;8.20;4.30;;;;;;;15.30;100.00;99616.70;108955;1286;100214;-61
2023/09/18 04:41:41;;;;;;;4.10;3.40;;;;;;;15.33;100.00;99617.85;109341;1286;22286;-61
2023/09/18 04:44:12;;;;;;;7.10;4.50;;;;;;;15.34;100.00;99618.48;109273;1285;101038;-61
2023/09/18 04:46:42;;;;;;;6.00;3.80;;;;;;;15.35;100.00;99617.70;109366;1285;22162;-61
2023/09/18 04:49:11;;;;;;;7.40;4.00;;;;;;;15.37;100.00;99619.72;109296;1285;103353;-61
2023/09/18 04:51:41;;;;;;;5.60;4.00;;;;;;;15.38;100.00;99616.65;109084;1288;22163;-61
2023/09/18 04:54:10;;;;;;;6.30;4.00;;;;;;;15.39;100.00;99613.22;109325;1285;23376;-62
2023/09/18 04:56:38;;;;;;;5.50;3.60;;;;;;;15.44;100.00;99603.96;109287;1282;99268;-61
2023/09/18 04:59:07;;;;;;;5.90;3.70;;;;;;;15.50;100.00;99600.58;109358;1285;22177;-61
2023/09/18 05:01:36;;;;;;;4.80;3.80;;;;;;;15.58;100.00;99598.98;108982;1276;101185;-60
2023/09/18 05:04:07;;;;;;;4.70;3.50;;;;;;;15.68;100.00;99604.25;109325;1285;22116;-61
2023/09/18 05:06:35;;;;;;;4.30;3.20;;;;;;;15.77;100.00;99606.75;109287;1285;22331;-60
2023/09/18 05:09:05;;;;;;;5.30;3.10;;;;;;;15.86;100.00;99608.09;108983;1286;101287;-62
2023/09/18 05:11:36;;;;;;;4.80;3.60;;;;;;;15.95;100.00;99606.23;109272;1286;22335;-61
2023/09/18 05:14:07;;;;;;;4.90;4.00;;;;;;;16.01;100.00;99602.27;109248;1285;100082;-62
2023/09/18 05:16:36;;;;;;;4.70;3.90;;;;;;;16.04;100.00;99604.14;109265;1285;22360;-61
2023/09/18 05:19:05;;;;;;;5.30;4.10;;;;;;;16.09;100.00;99597.83;109193;1286;100233;-60
2023/09/18 05:21:33;;;;;;;5.00;3.80;;;;;;;16.14;100.00;99591.81;109264;1286;23005;-45
2023/09/18 05:24:04;;;;;;;6.10;4.30;;;;;;;16.20;100.00;99590.30;109075;1286;22331;-54
2023/09/18 05:26:40;;;;;;;5.30;3.80;;;;;;;16.27;100.00;99592.12;109080;1286;101269;-58
2023/09/18 05:29:10;;;;;;;5.80;4.20;;;;;;;16.34;100.00;99592.35;109077;1286;22316;-62
2023/09/18 05:31:38;;;;;;;6.20;4.30;;;;;;;16.40;100.00;99594.38;108975;1286;100496;-61
2023/09/18 05:34:07;;;;;;;4.90;3.80;;;;;;;16.46;100.00;99596.72;109315;1286;22335;-62
2023/09/18 05:36:36;;;;;;;4.80;3.70;;;;;;;16.55;100.00;99596.06;109336;1286;22403;-58
2023/09/18 05:39:09;;;;;;;6.10;3.60;;;;;;;16.63;100.00;99602.82;109188;1286;99839;-61
2023/09/18 05:41:39;;;;;;;5.80;3.80;;;;;;;16.74;100.00;99602.86;109009;1286;22176;-60
2023/09/18 05:44:09;;;;;;;5.20;3.80;;;;;;;16.87;100.00;99608.14;109180;1286;99826;-60
2023/09/18 05:46:37;;;;;;;5.00;3.70;;;;;;;16.99;100.00;99609.33;109245;1285;22187;-58
2023/09/18 05:49:06;;;;;;;5.20;3.50;;;;;;;17.03;100.00;99608.45;109163;1285;121303;-61
2023/09/18 05:51:35;;;;;;;5.90;3.90;;;;;;;17.07;100.00;99606.73;109260;1285;22161;-61
2023/09/18 05:54:04;;;;;;;4.50;3.80;;;;;;;17.11;100.00;99610.34;109348;1286;23369;-63
2023/09/18 05:56:33;;;;;;;7.90;3.60;;;;;;;17.17;100.00;99605.81;109236;1287;99774;-48
2023/09/18 05:59:02;;;;;;;4.80;3.50;;;;;;;17.26;100.00;99601.63;109041;1286;22092;-53
2023/09/18 06:01:32;;;;;;;5.40;3.50;;;;;;;17.36;100.00;99596.67;109091;1286;101195;-56
2023/09/18 06:04:07;;;;;;;6.00;3.60;;;;;;;17.43;100.00;99592.95;109335;1286;22320;-60
2023/09/18 06:06:36;;;;;;;4.40;3.50;;;;;;;17.53;100.00;99591.80;109115;1285;206817;-58
2023/09/18 06:09:04;;;;;;;5.20;3.80;;;;;;;17.58;100.00;99591.02;109227;1282;99833;-57
2023/09/18 06:11:33;;;;;;;4.80;3.40;;;;;;;17.67;100.00;99594.00;109035;1287;22820;-59
2023/09/18 06:14:01;;;;;;;6.40;3.90;;;;;;;17.78;100.00;99591.30;109005;1286;100404;-54
2023/09/18 06:16:31;;;;;;;4.70;3.50;;;;;;;17.88;100.00;99590.34;109051;1288;22269;-62
2023/09/18 06:22:07;;;;;;;5.70;3.80;;;;;;;18.06;100.00;99582.88;108486;1295;22559;-61
2023/09/18 06:24:36;;;;;;;4.80;3.50;;;;;;;18.16;100.00;99583.45;108733;1292;22508;-60
2023/09/18 06:27:25;;;;;;;6.70;4.80;;;;;;;18.27;100.00;99580.65;108600;1291;100385;-62
2023/09/18 06:30:01;;;;;;;5.20;4.10;;;;;;;18.38;100.00;99577.95;108598;1293;22442;-61
2023/09/18 06:32:30;;;;;;;5.00;3.30;;;;;;;18.49;100.00;99573.54;108630;1289;99908;-64
2023/09/18 06:35:00;;;;;;;6.00;3.30;;;;;;;18.59;100.00;99569.01;108587;1295;22430;-57
2023/09/18 06:37:35;;;;;;;4.10;3.40;;;;;;;18.76;100.00;99567.95;108653;1292;99939;-57
2023/09/18 06:40:03;;;;;;;5.00;3.50;;;;;;;18.90;100.00;99562.23;108707;1292;22433;-61
2023/09/18 06:42:33;;;;;;;4.40;3.20;;;;;;;19.03;100.00;99557.11;108714;1292;23246;-60
2023/09/18 06:45:06;;;;;;;4.60;3.30;;;;;;;19.23;100.00;99549.05;108554;1292;99867;-59
2023/09/18 06:47:35;;;;;;;6.30;4.00;;;;;;;19.44;100.00;99548.23;108617;1295;23023;-60
2023/09/18 06:50:05;;;;;;;5.10;3.70;;;;;;;19.67;100.00;99544.48;108631;1292;100402;-60
2023/09/18 06:52:41;;;;;;;4.20;2.90;;;;;;;19.89;100.00;99546.66;108654;1291;22233;-60
2023/09/18 06:55:14;;;;;;;4.90;3.60;;;;;;;20.16;100.00;99552.71;108481;1293;101869;-60
2023/09/18 06:57:43;;;;;;;5.00;3.00;;;;;;;20.32;100.00;99554.97;108464;1291;22925;-57
2023/09/18 07:00:15;;;;;;;4.50;3.10;;;;;;;20.57;100.00;99554.48;109039;1286;22156;-59
2023/09/18 07:02:44;;;;;;;4.50;3.20;;;;;;;20.73;100.00;99554.41;109115;1286;100486;-61
2023/09/18 07:05:15;;;;;;;3.40;2.70;;;;;;;20.83;100.00;99555.54;109241;1286;22488;-60
2023/09/18 07:07:44;;;;;;;5.20;3.50;;;;;;;20.84;100.00;99557.14;109169;1286;100527;-59
2023/09/18 07:10:55;;;;;;;4.90;3.30;;;;;;;20.99;100.00;99557.30;109184;1289;22162;-59
2023/09/18 07:13:38;;;;;;;5.40;3.10;;;;;;;21.33;100.00;99543.70;109005;1286;99954;-56
2023/09/18 07:16:07;;;;;;;4.10;2.90;;;;;;;21.58;100.00;99544.38;109050;1289;22277;-57
2023/09/18 07:18:35;;;;;;;3.90;2.50;;;;;;;21.86;100.00;99536.35;109247;1286;22200;-55
2023/09/18 07:21:04;;;;;;;3.30;3.00;;;;;;;22.10;100.00;99539.31;108851;1286;100361;-55
2023/09/18 07:23:36;;;;;;;4.00;2.80;;;;;;;22.43;100.00;99540.48;109257;1286;22313;-58
2023/09/18 07:26:06;;;;;;;5.30;2.90;;;;;;;22.78;100.00;99538.27;109148;1286;100624;-58
2023/09/18 07:28:35;;;;;;;4.90;3.10;;;;;;;22.88;100.00;99527.45;109046;1286;22307;-58
2023/09/18 07:31:09;;;;;;;5.10;3.00;;;;;;;22.87;100.00;99527.91;108914;1286;22758;-58
2023/09/18 07:33:38;;;;;;;3.80;2.80;;;;;;;22.86;100.00;99523.52;109215;1286;23238;-59
2023/09/18 07:36:07;;;;;;;5.60;2.70;;;;;;;22.97;100.00;99527.09;109219;1287;22459;-59
2023/09/18 07:38:43;;;;;;;4.90;2.40;;;;;;;23.12;100.00;99527.20;109093;1286;99951;-59
2023/09/18 07:41:19;;;;;;;3.60;2.60;;;;;;;23.37;100.00;99524.77;109036;1289;23504;-59
2023/09/18 07:43:51;;;;;;;3.70;2.50;;;;;;;23.95;100.00;99522.38;109100;1286;100062;-60
2023/09/18 07:46:20;;;;;;;6.30;2.20;;;;;;;24.61;99.72;99520.50;109114;1286;22336;-58
2023/09/18 07:48:49;;;;;;;3.40;2.30;;;;;;;25.11;97.21;99520.98;109129;1287;22324;-58
2023/09/18 07:51:19;;;;;;;3.60;2.30;;;;;;;25.20;95.33;99518.59;109234;1289;100242;-59
2023/09/18 07:53:52;;;;;;;4.20;2.30;;;;;;;25.26;94.77;99517.05;109346;1286;22811;-58
2023/09/18 07:56:21;;;;;;;2.30;1.80;;;;;;;25.25;93.11;99515.94;108968;1285;99927;-58
2023/09/18 07:58:50;;;;;;;5.20;2.00;;;;;;;25.44;92.54;99514.15;109336;1284;22271;-59
2023/09/18 08:01:22;;;;;;;4.00;1.80;;;;;;;25.93;92.34;99513.52;109285;1286;100875;-58
2023/09/18 08:03:50;;;;;;;4.30;1.80;;;;;;;26.58;91.60;99511.95;109121;1286;22310;-58
2023/09/18 08:06:19;;;;;;;2.80;1.70;;;;;;;27.41;91.46;99509.11;109360;1285;22250;-57
2023/09/18 08:08:48;;;;;;;3.10;1.90;;;;;;;28.52;89.78;99499.35;108931;1283;100664;-58
2023/09/18 08:11:16;;;;;;;3.50;2.10;;;;;;;29.74;85.61;99491.56;109192;1286;22363;-58
2023/09/18 08:14:00;;;;;;;2.40;1.70;;;;;;;30.86;82.98;99483.70;109272;1286;99775;-57
2023/09/18 08:16:30;;;;;;;2.00;1.40;;;;;;;31.58;79.80;99491.78;108950;1285;22344;-58
2023/09/18 08:19:04;;;;;;;2.40;1.30;;;;;;;32.10;75.58;99489.30;109117;1289;22341;-59
2023/09/18 08:21:33;;;;;;;5.10;2.90;;;;;;;33.23;74.69;99483.52;109148;1286;99441;-58
2023/09/18 08:24:02;;;;;;;1.90;1.20;;;;;;;34.40;71.73;99480.86;109368;1285;22192;-58
2023/09/18 08:26:31;;;;;;;3.10;1.50;;;;;;;35.18;68.54;99478.06;109296;1286;99579;-59
2023/09/18 08:29:00;;;;;;;2.60;1.60;;;;;;;35.97;65.81;99480.27;108825;1289;22410;-59
2023/09/18 08:31:31;;;;;;;5.60;1.80;;;;;;;37.09;63.28;99477.38;108978;1286;100429;-59
2023/09/18 08:34:09;;;;;;;4.10;1.70;;;;;;;38.45;61.83;99480.80;108856;1287;22096;-59
2023/09/18 08:36:38;;;;;;;1.90;1.20;;;;;;;39.55;59.03;99473.77;109365;1286;23433;-59
2023/09/18 08:39:07;;;;;;;3.30;1.30;;;;;;;39.83;54.07;99469.16;108978;1288;101805;-58
2023/09/18 08:41:42;;;;;;;2.50;1.10;;;;;;;40.62;52.40;99465.83;109004;1286;22628;-58
2023/09/18 08:44:13;;;;;;;2.90;1.20;;;;;;;41.44;50.36;99465.74;108998;1286;99953;-59
2023/09/18 08:46:43;;;;;;;1.90;1.30;;;;;;;41.87;43.85;99471.58;109041;1286;22408;-57
2023/09/18 08:49:12;;;;;;;2.50;1.20;;;;;;;41.70;40.86;99463.68;109252;1285;99581;-57
2023/09/18 08:51:42;;;;;;;2.00;1.20;;;;;;;41.89;39.80;99459.78;109107;1285;22591;-58
2023/09/18 08:54:12;;;;;;;2.70;1.30;;;;;;;41.51;37.17;99454.25;109093;1287;22289;-58
2023/09/18 08:56:41;;;;;;;1.70;1.20;;;;;;;40.50;35.12;99449.77;109273;1285;100108;-58
2023/09/18 08:59:11;;;;;;;4.10;1.00;;;;;;;40.45;34.02;99450.09;109227;1286;23241;-57
2023/09/18 09:01:43;;;;;;;1.30;1.10;;;;;;;40.57;32.16;99454.73;108854;1282;99863;-59
2023/09/18 09:04:11;;;;;;;3.00;1.00;;;;;;;40.69;31.91;99450.48;109336;1285;22103;-58
2023/09/18 09:06:42;;;;;;;1.20;0.80;;;;;;;41.14;31.66;99453.64;109381;1286;22177;-58
2023/09/18 09:09:12;;;;;;;3.10;1.20;;;;;;;41.30;30.20;99451.02;108897;1285;101549;-58
2023/09/18 09:11:49;;;;;;;1.20;1.00;;;;;;;41.16;29.55;99446.92;109340;1290;22074;-58
2023/09/18 09:14:21;;;;;;;1.10;0.80;;;;;;;40.90;28.91;99437.41;109273;1285;99980;-59
2023/09/18 09:16:51;;;;;;;1.20;0.90;;;;;;;41.21;28.66;99434.63;109230;1286;22290;-58
2023/09/18 09:19:38;;;;;;;2.40;1.10;;;;;;;40.92;27.40;99434.07;108856;1286;99817;-58
2023/09/18 09:22:09;;;;;;;1.90;0.90;;;;;;;40.56;27.68;99420.86;109344;1285;22242;-58
2023/09/18 09:24:39;;;;;;;1.70;1.00;;;;;;;41.27;27.89;99422.87;109085;1285;22367;-59
2023/09/18 09:27:08;;;;;;;2.80;1.10;;;;;;;41.55;26.74;99420.64;109131;1286;100246;-57
2023/09/18 09:29:37;;;;;;;2.10;1.20;;;;;;;41.18;26.23;99413.02;109056;1286;22886;-60
2023/09/18 09:32:16;;;;;;;4.50;1.10;;;;;;;41.03;26.54;99411.52;109284;1279;100153;-62
2023/09/18 09:34:46;;;;;;;2.00;0.80;;;;;;;41.74;27.19;99409.96;109361;1286;22164;-59
2023/09/18 09:37:14;;;;;;;2.00;1.00;;;;;;;42.98;26.74;99405.61;109253;1286;99638;-51
2023/09/18 09:39:51;;;;;;;1.50;0.80;;;;;;;43.20;26.11;99403.73;109361;1286;22198;-59
2023/09/18 09:42:24;;;;;;;2.30;1.30;;;;;;;42.75;25.30;99400.17;109217;1286;22149;-53
2023/09/18 09:45:05;;;;;;;3.70;1.10;;;;;;;42.82;25.42;99391.46;109028;1286;100224;-55
2023/09/18 09:47:35;;;;;;;1.30;1.00;;;;;;;42.98;24.89;99387.65;109129;1288;22758;-55
2023/09/18 09:50:18;;;;;;;3.70;1.20;;;;;;;42.81;24.37;99380.02;108837;1286;100305;-58
2023/09/18 09:52:50;;;;;;;2.90;0.90;;;;;;;42.69;24.60;99371.63;109119;1285;22166;-54
2023/09/18 09:55:32;;;;;;;1.30;1.20;;;;;;;43.16;24.15;99368.37;108934;1283;100674;-60
2023/09/18 09:58:04;;;;;;;4.30;1.10;;;;;;;42.75;23.85;99368.98;109057;1289;22510;-54
2023/09/18 10:00:43;;;;;;;2.40;1.30;;;;;;;42.01;23.29;99362.56;109328;1285;23157;-56
2023/09/18 10:03:17;;;;;;;1.20;1.10;;;;;;;41.86;23.68;99359.23;109014;1286;99612;-58
2023/09/18 10:05:51;;;;;;;1.30;1.00;;;;;;;41.23;23.46;99356.06;109070;1286;23138;-65
2023/09/18 10:08:24;;;;;;;1.10;1.00;;;;;;;40.76;23.91;99355.63;109019;1287;100115;-61
2023/09/18 10:10:56;;;;;;;2.00;1.20;;;;;;;40.75;24.41;99349.34;109094;1286;22102;-54
2023/09/18 10:13:32;;;;;;;2.70;1.20;;;;;;;41.39;24.61;99347.77;109138;1276;101270;-56
2023/09/18 10:16:04;;;;;;;2.50;1.20;;;;;;;41.44;23.86;99348.91;109109;1285;22293;-58
2023/09/18 10:18:46;;;;;;;2.60;1.00;;;;;;;41.16;24.36;99337.59;109266;1286;23016;-54
2023/09/18 10:21:48;;;;;;;3.50;1.20;;;;;;;41.72;24.07;99336.39;109286;1285;100224;-60
2023/09/18 10:24:30;;;;;;;1.30;0.90;;;;;;;42.00;23.80;99335.88;109340;1286;22161;-55
2023/09/18 10:27:02;;;;;;;1.20;1.10;;;;;;;41.92;23.55;99333.08;109285;1285;100423;-58
2023/09/18 10:29:36;;;;;;;3.40;1.30;;;;;;;41.97;23.77;99329.41;109129;1287;22173;-59
2023/09/18 10:32:07;;;;;;;1.40;1.00;;;;;;;42.62;23.66;99333.13;109042;1286;100911;-59
2023/09/18 10:34:36;;;;;;;2.60;1.10;;;;;;;42.58;23.24;99328.73;109053;1273;23301;-59
2023/09/18 10:37:08;;;;;;;2.20;1.30;;;;;;;42.69;23.16;99329.10;109372;1282;22234;-58
2023/09/18 10:39:41;;;;;;;1.60;1.10;;;;;;;42.64;22.50;99327.95;109368;1286;22148;-58
2023/09/18 10:42:12;;;;;;;2.00;1.10;;;;;;;42.36;22.75;99320.74;109350;1285;22928;-59
2023/09/18 10:44:41;;;;;;;0.80;0.80;;;;;;;42.26;22.76;99322.88;109272;1285;100461;-58
2023/09/18 10:47:15;;;;;;;3.40;1.20;;;;;;;41.36;22.77;99316.75;109382;1285;23144;-59
2023/09/18 10:49:44;;;;;;;3.70;1.10;;;;;;;41.99;23.61;99315.10;108869;1286;99691;-58
2023/09/18 10:52:14;;;;;;;1.40;0.90;;;;;;;43.14;23.72;99308.50;109114;1287;22395;-59
2023/09/18 10:54:44;;;;;;;1.50;1.30;;;;;;;43.04;22.30;99308.09;109351;1285;22348;-59
2023/09/18 10:57:13;;;;;;;1.20;1.10;;;;;;;41.42;22.53;99303.07;109270;1285;100080;-59
2023/09/18 10:59:45;;;;;;;1.70;1.10;;;;;;;41.43;22.84;99301.02;109328;1285;22176;-59
2023/09/18 11:02:17;;;;;;;1.80;1.10;;;;;;;41.03;23.16;99296.31;109234;1285;99784;-60
2023/09/18 11:04:45;;;;;;;3.00;1.10;;;;;;;41.03;23.44;99294.12;109370;1285;22255;-60
2023/09/18 11:07:22;;;;;;;0.90;0.80;;;;;;;41.41;23.79;99290.59;109234;1285;99892;-57
2023/09/18 11:09:51;;;;;;;1.70;1.10;;;;;;;41.69;23.43;99294.63;109006;1288;22186;-56
2023/09/18 11:12:44;;;;;;;6.80;1.60;;;;;;;40.71;23.28;99288.59;109280;1285;23056;-61
2023/09/18 11:15:31;;;;;;;3.90;1.80;;;;;;;39.68;23.75;99283.35;109224;1285;100070;-55
2023/09/18 11:18:04;;;;;;;0.90;0.80;;;;;;;39.98;24.36;99270.38;108943;1282;22322;-59
2023/09/18 11:20:41;;;;;;;5.70;1.40;;;;;;;39.89;24.72;99267.73;109027;1286;100547;-59
2023/09/18 11:23:18;;;;;;;1.70;1.20;;;;;;;40.86;24.58;99265.84;109294;1286;22399;-64
2023/09/18 11:25:54;;;;;;;1.20;0.90;;;;;;;40.65;24.03;99261.70;109034;1286;99810;-60
2023/09/18 11:28:28;;;;;;;1.70;0.90;;;;;;;41.02;24.37;99257.10;108939;1287;22394;-57
2023/09/18 11:31:07;;;;;;;3.40;1.00;;;;;;;41.61;23.97;99260.85;109023;1286;22118;-62
2023/09/18 11:33:44;;;;;;;1.00;0.90;;;;;;;40.81;23.41;99253.55;108975;1286;22187;-61
2023/09/18 11:36:32;;;;;;;2.90;1.20;;;;;;;39.15;23.18;99253.10;109019;1286;22298;-63
2023/09/18 11:39:03;;;;;;;1.30;0.80;;;;;;;38.40;24.23;99257.48;109158;1285;100012;-61